createdAt,value
2019-03-10T00:00:11.200Z,1009.76
2019-03-10T00:01:11.192Z,1009.82
2019-03-10T00:02:11.183Z,1009.79
2019-03-10T00:03:11.176Z,1009.80
2019-03-10T00:04:11.168Z,1009.75
2019-03-10T00:05:11.156Z,1009.77
2019-03-10T00:06:11.199Z,1009.70
2019-03-10T00:07:11.141Z,1009.67
2019-03-10T00:08:11.133Z,1009.62
2019-03-10T00:09:11.123Z,1009.62
2019-03-10T00:10:11.111Z,1009.59
2019-03-10T00:11:11.099Z,1009.49
2019-03-10T00:12:11.092Z,1009.46
2019-03-10T00:13:11.088Z,1009.41
2019-03-10T00:14:11.080Z,1009.42
2019-03-10T00:15:11.071Z,1009.39
2019-03-10T00:16:11.065Z,1009.41
2019-03-10T00:17:11.051Z,1009.40
2019-03-10T00:18:11.038Z,1009.33
2019-03-10T00:19:11.033Z,1009.33
2019-03-10T00:20:11.037Z,1009.33
2019-03-10T00:21:11.021Z,1009.34
2019-03-10T00:22:11.014Z,1009.29
2019-03-10T00:23:10.999Z,1009.27
2019-03-10T00:24:10.991Z,1009.27
2019-03-10T00:25:10.986Z,1009.25
2019-03-10T00:26:10.976Z,1009.27
2019-03-10T00:27:10.969Z,1009.31
2019-03-10T00:28:10.959Z,1009.31
2019-03-10T00:29:10.945Z,1009.35
2019-03-10T00:30:10.937Z,1009.28
2019-03-10T00:31:10.926Z,1009.29
2019-03-10T00:32:10.917Z,1009.27
2019-03-10T00:33:10.915Z,1009.26
2019-03-10T00:34:10.906Z,1009.24
2019-03-10T00:35:10.902Z,1009.21
2019-03-10T00:36:10.893Z,1009.26
2019-03-10T00:37:10.879Z,1009.23
2019-03-10T00:38:10.868Z,1009.20
2019-03-10T00:39:10.864Z,1009.20
2019-03-10T00:40:10.856Z,1009.16
2019-03-10T00:41:10.842Z,1009.20
2019-03-10T00:42:10.833Z,1009.15
2019-03-10T00:43:10.821Z,1009.14
2019-03-10T00:44:10.813Z,1009.10
2019-03-10T00:45:10.811Z,1009.07
2019-03-10T00:46:10.799Z,1009.09
2019-03-10T00:47:10.794Z,1009.05
2019-03-10T00:48:10.786Z,1009.06
2019-03-10T00:49:10.772Z,1009.03
2019-03-10T00:50:10.822Z,1009.03
2019-03-10T00:51:10.753Z,1009.01
2019-03-10T00:52:10.743Z,1009.01
2019-03-10T00:53:10.739Z,1008.98
2019-03-10T00:54:10.731Z,1008.99
2019-03-10T00:55:10.717Z,1008.95
2019-03-10T00:56:10.709Z,1009.00
2019-03-10T00:57:10.703Z,1009.02
2019-03-10T00:58:10.695Z,1009.02
2019-03-10T00:59:10.688Z,1009.07
2019-03-10T01:00:10.679Z,1009.07
2019-03-10T01:01:10.667Z,1009.04
2019-03-10T01:02:10.658Z,1009.01
2019-03-10T01:03:10.649Z,1009.05
2019-03-10T01:04:10.642Z,1009.00
2019-03-10T01:05:10.635Z,1008.99
2019-03-10T01:06:10.624Z,1008.96
2019-03-10T01:07:10.619Z,1008.96
2019-03-10T01:08:10.607Z,1008.90
2019-03-10T01:09:10.592Z,1008.92
2019-03-10T01:10:10.583Z,1008.93
2019-03-10T01:11:10.579Z,1008.93
2019-03-10T01:12:10.570Z,1008.91
2019-03-10T01:13:10.558Z,1008.89
2019-03-10T01:14:10.552Z,1008.91
2019-03-10T01:15:10.541Z,1008.87
2019-03-10T01:16:10.533Z,1008.84
2019-03-10T01:17:10.528Z,1008.80
2019-03-10T01:18:10.520Z,1008.75
2019-03-10T01:19:10.512Z,1008.69
2019-03-10T01:20:10.502Z,1008.66
2019-03-10T01:21:10.492Z,1008.60
2019-03-10T01:22:10.479Z,1008.59
2019-03-10T01:23:10.467Z,1008.56
2019-03-10T01:24:10.461Z,1008.50
2019-03-10T01:25:10.456Z,1008.49
2019-03-10T01:26:10.448Z,1008.49
2019-03-10T01:27:10.433Z,1008.46
2019-03-10T01:28:10.424Z,1008.43
2019-03-10T01:29:10.422Z,1008.49
2019-03-10T01:30:10.411Z,1008.46
2019-03-10T01:31:10.405Z,1008.40
2019-03-10T01:32:10.397Z,1008.36
2019-03-10T01:33:10.383Z,1008.30
2019-03-10T01:34:10.373Z,1008.20
2019-03-10T01:35:10.367Z,1008.12
2019-03-10T01:36:10.357Z,1008.10
2019-03-10T01:37:10.352Z,1008.16
2019-03-10T01:38:10.345Z,1008.09
2019-03-10T01:39:10.331Z,1008.08
2019-03-10T01:40:10.324Z,1008.01
2019-03-10T01:41:10.311Z,1007.96
2019-03-10T01:42:10.314Z,1007.96
2019-03-10T01:43:10.298Z,1007.94
2019-03-10T01:44:10.288Z,1007.94
2019-03-10T01:45:10.273Z,1007.91
2019-03-10T01:46:10.265Z,1007.95
2019-03-10T01:47:10.263Z,1007.97
2019-03-10T01:48:10.252Z,1007.94
2019-03-10T01:49:10.247Z,1007.95
2019-03-10T01:50:10.236Z,1007.94
2019-03-10T01:51:10.243Z,1007.86
2019-03-10T01:52:10.217Z,1007.86
2019-03-10T01:53:10.204Z,1007.85
2019-03-10T01:54:10.256Z,1007.88
2019-03-10T01:55:10.189Z,1007.83
2019-03-10T01:56:10.181Z,1007.81
2019-03-10T01:57:10.182Z,1007.81
2019-03-10T01:58:10.167Z,1007.76
2019-03-10T01:59:10.154Z,1007.68
2019-03-10T02:00:10.144Z,1007.70
2019-03-10T02:01:10.140Z,1007.63
2019-03-10T02:02:10.136Z,1007.59
2019-03-10T02:03:10.120Z,1007.56
2019-03-10T02:04:10.111Z,1007.50
2019-03-10T02:05:10.101Z,1007.52
2019-03-10T02:06:10.089Z,1007.46
2019-03-10T02:07:10.080Z,1007.43
2019-03-10T02:08:10.073Z,1007.44
2019-03-10T02:09:10.067Z,1007.40
2019-03-10T02:10:10.059Z,1007.37
2019-03-10T02:11:10.055Z,1007.26
2019-03-10T02:12:10.043Z,1007.25
2019-03-10T02:13:10.031Z,1007.20
2019-03-10T02:14:10.021Z,1007.16
2019-03-10T02:15:10.016Z,1007.16
2019-03-10T02:16:10.010Z,1007.09
2019-03-10T02:17:09.997Z,1007.01
2019-03-10T02:18:09.986Z,1007.02
2019-03-10T02:19:09.975Z,1006.98
2019-03-10T02:20:09.965Z,1006.93
2019-03-10T02:21:09.964Z,1006.86
2019-03-10T02:22:09.952Z,1006.85
2019-03-10T02:23:09.944Z,1006.86
2019-03-10T02:24:09.936Z,1006.84
2019-03-10T02:25:09.923Z,1006.75
2019-03-10T02:26:09.914Z,1006.82
2019-03-10T02:27:09.912Z,1006.77
2019-03-10T02:28:09.898Z,1006.76
2019-03-10T02:29:09.895Z,1006.69
2019-03-10T02:30:09.886Z,1006.66
2019-03-10T02:31:09.936Z,1006.64
2019-03-10T02:32:09.874Z,1006.63
2019-03-10T02:33:09.861Z,1006.63
2019-03-10T02:34:09.895Z,1006.55
2019-03-10T02:35:09.842Z,1006.54
2019-03-10T02:36:09.832Z,1006.47
2019-03-10T02:37:09.820Z,1006.42
2019-03-10T02:38:09.812Z,1006.45
2019-03-10T02:39:09.801Z,1006.40
2019-03-10T02:40:09.794Z,1006.36
2019-03-10T02:41:09.790Z,1006.34
2019-03-10T02:42:09.789Z,1006.30
2019-03-10T02:43:09.774Z,1006.26
2019-03-10T02:44:09.765Z,1006.23
2019-03-10T02:45:09.751Z,1006.22
2019-03-10T02:46:09.743Z,1006.21
2019-03-10T02:47:09.739Z,1006.15
2019-03-10T02:48:09.731Z,1006.13
2019-03-10T02:49:09.722Z,1006.16
2019-03-10T02:50:09.714Z,1006.14
2019-03-10T02:51:09.773Z,1006.06
2019-03-10T02:52:09.689Z,1006.12
2019-03-10T02:53:09.689Z,1006.07
2019-03-10T02:54:09.696Z,1006.05
2019-03-10T02:55:09.671Z,1006.06
2019-03-10T02:56:09.660Z,1005.96
2019-03-10T02:57:09.649Z,1005.95
2019-03-10T02:58:09.641Z,1005.98
2019-03-10T02:59:09.626Z,1005.94
2019-03-10T03:00:09.619Z,1005.87
2019-03-10T03:01:09.615Z,1005.85
2019-03-10T03:02:09.606Z,1005.82
2019-03-10T03:03:09.592Z,1005.76
2019-03-10T03:04:09.585Z,1005.78
2019-03-10T03:05:09.585Z,1005.75
2019-03-10T03:06:09.574Z,1005.70
2019-03-10T03:07:09.578Z,1005.67
2019-03-10T03:08:09.561Z,1005.59
2019-03-10T03:09:09.542Z,1005.58
2019-03-10T03:10:09.534Z,1005.54
2019-03-10T03:11:09.523Z,1005.50
2019-03-10T03:12:09.516Z,1005.53
2019-03-10T03:13:09.511Z,1005.47
2019-03-10T03:14:09.502Z,1005.40
2019-03-10T03:15:09.491Z,1005.38
2019-03-10T03:16:09.480Z,1005.31
2019-03-10T03:17:09.485Z,1005.33
2019-03-10T03:18:09.458Z,1005.29
2019-03-10T03:19:09.456Z,1005.30
2019-03-10T03:20:09.446Z,1005.31
2019-03-10T03:21:09.432Z,1005.28
2019-03-10T03:22:09.427Z,1005.22
2019-03-10T03:23:09.418Z,1005.17
2019-03-10T03:24:09.413Z,1005.08
2019-03-10T03:25:09.406Z,1005.12
2019-03-10T03:26:09.427Z,1005.09
2019-03-10T03:27:09.392Z,1005.08
2019-03-10T03:28:09.378Z,1005.08
2019-03-10T03:29:09.365Z,1005.10
2019-03-10T03:30:09.373Z,1004.97
2019-03-10T03:31:09.346Z,1004.96
2019-03-10T03:32:09.337Z,1004.96
2019-03-10T03:33:09.333Z,1004.94
2019-03-10T03:34:09.325Z,1004.94
2019-03-10T03:35:09.309Z,1004.86
2019-03-10T03:36:09.302Z,1004.85
2019-03-10T03:37:09.298Z,1004.85
2019-03-10T03:38:09.287Z,1004.83
2019-03-10T03:39:09.282Z,1004.81
2019-03-10T03:40:09.272Z,1004.78
2019-03-10T03:41:09.258Z,1004.78
2019-03-10T03:42:09.250Z,1004.74
2019-03-10T03:43:09.241Z,1004.71
2019-03-10T03:44:09.237Z,1004.71
2019-03-10T03:45:09.227Z,1004.63
2019-03-10T03:46:09.218Z,1004.66
2019-03-10T03:47:09.207Z,1004.62
2019-03-10T03:48:09.199Z,1004.60
2019-03-10T03:49:09.188Z,1004.55
2019-03-10T03:50:09.174Z,1004.53
2019-03-10T03:51:09.170Z,1004.52
2019-03-10T03:52:09.162Z,1004.43
2019-03-10T03:53:09.148Z,1004.36
2019-03-10T03:54:09.138Z,1004.30
2019-03-10T03:55:09.136Z,1004.25
2019-03-10T03:56:09.140Z,1004.26
2019-03-10T03:57:09.126Z,1004.20
2019-03-10T03:58:09.111Z,1004.15
2019-03-10T03:59:09.095Z,1004.06
2019-03-10T04:00:09.083Z,1004.09
2019-03-10T04:01:09.081Z,1004.05
2019-03-10T04:02:09.071Z,1003.96
2019-03-10T04:03:09.063Z,1003.99
2019-03-10T04:04:09.056Z,1003.94
2019-03-10T04:05:09.044Z,1003.91
2019-03-10T04:06:09.035Z,1003.89
2019-03-10T04:07:09.029Z,1003.86
2019-03-10T04:08:09.019Z,1003.84
2019-03-10T04:09:09.012Z,1003.77
2019-03-10T04:10:08.997Z,1003.77
2019-03-10T04:11:08.985Z,1003.79
2019-03-10T04:12:08.976Z,1003.74
2019-03-10T04:13:08.972Z,1003.72
2019-03-10T04:14:08.964Z,1003.64
2019-03-10T04:15:08.953Z,1003.64
2019-03-10T04:16:08.945Z,1003.54
2019-03-10T04:17:08.931Z,1003.51
2019-03-10T04:18:08.922Z,1003.51
2019-03-10T04:19:08.914Z,1003.41
2019-03-10T04:20:08.914Z,1003.46
2019-03-10T04:21:08.903Z,1003.37
2019-03-10T04:22:08.890Z,1003.42
2019-03-10T04:23:08.880Z,1003.36
2019-03-10T04:24:08.869Z,1003.37
2019-03-10T04:25:08.863Z,1003.35
2019-03-10T04:26:08.854Z,1003.34
2019-03-10T04:27:08.844Z,1003.35
2019-03-10T04:28:08.836Z,1003.30
2019-03-10T04:29:08.822Z,1003.29
2019-03-10T04:30:08.810Z,1003.26
2019-03-10T04:31:08.800Z,1003.23
2019-03-10T04:32:08.793Z,1003.15
2019-03-10T04:33:08.787Z,1003.12
2019-03-10T04:34:08.779Z,1003.14
2019-03-10T04:35:08.772Z,1003.13
2019-03-10T04:36:08.761Z,1003.11
2019-03-10T04:37:08.749Z,1003.06
2019-03-10T04:38:08.738Z,1003.06
2019-03-10T04:39:08.733Z,1003.01
2019-03-10T04:40:08.725Z,1003.00
2019-03-10T04:41:08.710Z,1002.97
2019-03-10T04:42:08.705Z,1002.94
2019-03-10T04:43:08.691Z,1002.97
2019-03-10T04:44:08.683Z,1002.91
2019-03-10T04:45:08.676Z,1002.86
2019-03-10T04:46:08.664Z,1002.83
2019-03-10T04:47:08.661Z,1002.76
2019-03-10T04:48:08.650Z,1002.70
2019-03-10T04:49:08.636Z,1002.69
2019-03-10T04:50:08.622Z,1002.64
2019-03-10T04:51:08.616Z,1002.61
2019-03-10T04:52:08.608Z,1002.60
2019-03-10T04:53:08.601Z,1002.57
2019-03-10T04:54:08.593Z,1002.54
2019-03-10T04:55:08.578Z,1002.53
2019-03-10T04:56:08.568Z,1002.56
2019-03-10T04:57:08.564Z,1002.50
2019-03-10T04:58:08.554Z,1002.48
2019-03-10T04:59:08.542Z,1002.44
2019-03-10T05:00:08.533Z,1002.42
2019-03-10T05:01:08.518Z,1002.38
2019-03-10T05:02:08.507Z,1002.32
2019-03-10T05:03:08.506Z,1002.30
2019-03-10T05:04:08.491Z,1002.26
2019-03-10T05:05:08.487Z,1002.26
2019-03-10T05:06:08.477Z,1002.19
2019-03-10T05:07:08.465Z,1002.24
2019-03-10T05:08:08.456Z,1002.24
2019-03-10T05:09:08.441Z,1002.18
2019-03-10T05:10:08.432Z,1002.19
2019-03-10T05:11:08.428Z,1002.15
2019-03-10T05:12:08.417Z,1002.13
2019-03-10T05:13:08.404Z,1002.05
2019-03-10T05:14:08.396Z,1002.10
2019-03-10T05:15:08.386Z,1002.09
2019-03-10T05:16:08.376Z,1002.04
2019-03-10T05:17:08.375Z,1002.08
2019-03-10T05:18:08.362Z,1002.04
2019-03-10T05:19:08.351Z,1002.00
2019-03-10T05:20:08.342Z,1001.92
2019-03-10T05:21:08.344Z,1001.93
2019-03-10T05:22:08.317Z,1001.86
2019-03-10T05:23:08.303Z,1001.91
2019-03-10T05:24:08.294Z,1001.84
2019-03-10T05:25:08.291Z,1001.75
2019-03-10T05:26:08.279Z,1001.69
2019-03-10T05:27:08.264Z,1001.62
2019-03-10T05:28:08.256Z,1001.58
2019-03-10T05:29:08.250Z,1001.52
2019-03-10T05:30:08.241Z,1001.44
2019-03-10T05:31:08.233Z,1001.43
2019-03-10T05:32:08.223Z,1001.35
2019-03-10T05:33:08.209Z,1001.33
2019-03-10T05:34:08.202Z,1001.27
2019-03-10T05:35:08.190Z,1001.23
2019-03-10T05:36:08.180Z,1001.25
2019-03-10T05:37:08.175Z,1001.19
2019-03-10T05:38:08.165Z,1001.22
2019-03-10T05:39:08.150Z,1001.22
2019-03-10T05:40:08.145Z,1001.11
2019-03-10T05:41:08.131Z,1001.04
2019-03-10T05:42:08.114Z,1001.02
2019-03-10T05:43:08.109Z,1000.99
2019-03-10T05:44:08.103Z,1001.02
2019-03-10T05:45:08.088Z,1001.02
2019-03-10T05:46:08.074Z,1001.05
2019-03-10T05:47:08.069Z,1000.98
2019-03-10T05:48:08.062Z,1000.91
2019-03-10T05:49:08.052Z,1000.85
2019-03-10T05:50:08.041Z,1000.80
2019-03-10T05:51:08.031Z,1000.76
2019-03-10T05:52:08.021Z,1000.75
2019-03-10T05:53:08.008Z,1000.71
2019-03-10T05:54:07.996Z,1000.66
2019-03-10T05:55:07.983Z,1000.62
2019-03-10T05:56:07.973Z,1000.52
2019-03-10T05:57:07.969Z,1000.47
2019-03-10T05:58:07.958Z,1000.42
2019-03-10T05:59:07.946Z,1000.33
2019-03-10T06:00:07.933Z,1000.31
2019-03-10T06:01:07.928Z,1000.25
2019-03-10T06:02:07.917Z,1000.22
2019-03-10T06:03:07.909Z,1000.19
2019-03-10T06:04:07.899Z,1000.18
2019-03-10T06:05:07.888Z,1000.14
2019-03-10T06:06:07.875Z,1000.14
2019-03-10T06:07:07.861Z,1000.22
2019-03-10T06:08:07.854Z,1000.20
2019-03-10T06:09:07.846Z,1000.18
2019-03-10T06:10:07.837Z,1000.21
2019-03-10T06:11:07.829Z,1000.17
2019-03-10T06:12:07.818Z,1000.18
2019-03-10T06:13:07.804Z,1000.15
2019-03-10T06:14:07.792Z,1000.12
2019-03-10T06:15:07.787Z,1000.16
2019-03-10T06:16:07.776Z,1000.16
2019-03-10T06:17:07.800Z,1000.15
2019-03-10T06:18:13.643Z,1000.10
2019-03-10T06:19:07.739Z,1000.08
2019-03-10T06:20:07.728Z,1000.03
2019-03-10T06:21:07.724Z,1000.00
2019-03-10T06:22:07.717Z,999.98
2019-03-10T06:23:07.704Z,999.94
2019-03-10T06:24:07.692Z,999.89
2019-03-10T06:25:07.682Z,999.81
2019-03-10T06:26:07.666Z,999.86
2019-03-10T06:27:07.663Z,999.80
2019-03-10T06:28:07.650Z,999.71
2019-03-10T06:29:07.644Z,999.67
2019-03-10T06:30:07.633Z,999.71
2019-03-10T06:31:07.619Z,999.61
2019-03-10T06:32:07.609Z,999.45
2019-03-10T06:33:07.603Z,999.43
2019-03-10T06:34:07.592Z,999.56
2019-03-10T06:35:07.580Z,999.82
2019-03-10T06:36:07.574Z,999.98
2019-03-10T06:37:07.554Z,999.74
2019-03-10T06:38:07.545Z,999.62
2019-03-10T06:39:07.537Z,999.54
2019-03-10T06:40:07.527Z,999.53
2019-03-10T06:41:07.518Z,999.39
2019-03-10T06:42:07.509Z,999.20
2019-03-10T06:43:07.498Z,999.12
2019-03-10T06:44:07.488Z,999.19
2019-03-10T06:45:07.474Z,999.18
2019-03-10T06:46:07.464Z,999.04
2019-03-10T06:47:07.458Z,999.02
2019-03-10T06:48:07.447Z,999.01
2019-03-10T06:49:07.436Z,999.04
2019-03-10T06:50:07.421Z,999.05
2019-03-10T06:51:07.409Z,998.96
2019-03-10T06:52:07.402Z,998.91
2019-03-10T06:53:07.392Z,998.89
2019-03-10T06:54:07.383Z,998.91
2019-03-10T06:55:07.379Z,998.92
2019-03-10T06:56:07.363Z,998.80
2019-03-10T06:57:07.345Z,998.85
2019-03-10T06:58:07.333Z,998.85
2019-03-10T06:59:07.326Z,998.83
2019-03-10T07:00:07.315Z,998.84
2019-03-10T07:01:07.312Z,998.78
2019-03-10T07:02:07.299Z,998.72
2019-03-10T07:03:07.288Z,998.65
2019-03-10T07:04:07.276Z,998.62
2019-03-10T07:05:07.267Z,998.56
2019-03-10T07:06:07.256Z,998.55
2019-03-10T07:07:07.245Z,998.54
2019-03-10T07:08:07.232Z,998.58
2019-03-10T07:09:07.218Z,998.54
2019-03-10T07:10:07.206Z,998.53
2019-03-10T07:11:07.198Z,998.44
2019-03-10T07:12:07.189Z,998.35
2019-03-10T07:13:07.182Z,998.30
2019-03-10T07:14:07.178Z,998.30
2019-03-10T07:15:07.158Z,998.25
2019-03-10T07:16:07.148Z,998.24
2019-03-10T07:17:07.149Z,998.16
2019-03-10T07:18:07.120Z,998.17
2019-03-10T07:19:07.114Z,998.14
2019-03-10T07:20:07.104Z,998.08
2019-03-10T07:21:07.088Z,998.10
2019-03-10T07:22:07.078Z,998.07
2019-03-10T07:23:07.069Z,998.07
2019-03-10T07:24:07.057Z,998.00
2019-03-10T07:25:07.054Z,997.98
2019-03-10T07:26:07.042Z,997.92
2019-03-10T07:27:07.030Z,997.87
2019-03-10T07:28:07.020Z,997.87
2019-03-10T07:29:07.005Z,997.87
2019-03-10T07:30:06.992Z,997.83
2019-03-10T07:31:06.981Z,997.81
2019-03-10T07:32:08.854Z,997.86
2019-03-10T07:33:06.964Z,997.80
2019-03-10T07:34:06.954Z,997.77
2019-03-10T07:35:06.939Z,997.71
2019-03-10T07:36:06.925Z,997.70
2019-03-10T07:37:06.920Z,997.74
2019-03-10T07:38:06.963Z,997.71
2019-03-10T07:39:06.900Z,997.64
2019-03-10T07:40:06.891Z,997.61
2019-03-10T07:41:06.877Z,997.59
2019-03-10T07:42:06.863Z,997.57
2019-03-10T07:43:06.853Z,997.51
2019-03-10T07:44:06.842Z,997.46
2019-03-10T07:45:06.838Z,997.48
2019-03-10T07:46:06.825Z,997.41
2019-03-10T07:47:06.813Z,997.35
2019-03-10T07:48:06.802Z,997.36
2019-03-10T07:49:06.787Z,997.37
2019-03-10T07:50:06.775Z,997.26
2019-03-10T07:51:06.771Z,997.22
2019-03-10T07:52:06.759Z,997.20
2019-03-10T07:53:06.745Z,997.25
2019-03-10T07:54:06.736Z,997.26
2019-03-10T07:55:06.726Z,997.33
2019-03-10T07:56:06.717Z,997.30
2019-03-10T07:57:06.708Z,997.28
2019-03-10T07:58:06.698Z,997.25
2019-03-10T07:59:06.688Z,997.21
2019-03-10T08:00:06.677Z,997.24
2019-03-10T08:01:06.663Z,997.28
2019-03-10T08:02:06.651Z,997.27
2019-03-10T08:03:06.638Z,997.21
2019-03-10T08:04:06.628Z,997.23
2019-03-10T08:05:06.623Z,997.15
2019-03-10T08:06:06.611Z,997.07
2019-03-10T08:07:06.596Z,997.17
2019-03-10T08:08:06.587Z,997.21
2019-03-10T08:09:06.579Z,997.07
2019-03-10T08:10:06.570Z,997.04
2019-03-10T08:11:06.563Z,997.12
2019-03-10T08:12:06.552Z,997.15
2019-03-10T08:13:06.536Z,997.16
2019-03-10T08:14:06.524Z,997.09
2019-03-10T08:15:06.514Z,997.10
2019-03-10T08:16:06.505Z,997.12
2019-03-10T08:17:06.499Z,997.15
2019-03-10T08:18:06.489Z,997.10
2019-03-10T08:19:06.476Z,996.99
2019-03-10T08:20:06.466Z,996.92
2019-03-10T08:21:06.452Z,997.00
2019-03-10T08:22:06.475Z,997.03
2019-03-10T08:23:06.435Z,996.93
2019-03-10T08:24:06.429Z,997.10
2019-03-10T08:25:06.410Z,997.07
2019-03-10T08:26:06.399Z,997.01
2019-03-10T08:27:06.393Z,997.03
2019-03-10T08:28:06.386Z,996.98
2019-03-10T08:29:06.381Z,996.99
2019-03-10T08:30:06.366Z,996.94
2019-03-10T08:31:06.356Z,996.96
2019-03-10T08:32:06.347Z,996.98
2019-03-10T08:33:06.332Z,996.93
2019-03-10T08:34:06.320Z,996.98
2019-03-10T08:35:06.308Z,996.91
2019-03-10T08:36:06.299Z,996.95
2019-03-10T08:37:06.297Z,996.92
2019-03-10T08:38:06.283Z,996.89
2019-03-10T08:39:06.270Z,996.88
2019-03-10T08:40:06.258Z,996.92
2019-03-10T08:41:06.259Z,996.81
2019-03-10T08:42:06.243Z,996.84
2019-03-10T08:43:06.236Z,996.85
2019-03-10T08:44:06.227Z,996.88
2019-03-10T08:45:06.213Z,996.92
2019-03-10T08:46:06.205Z,996.87
2019-03-10T08:47:06.193Z,996.92
2019-03-10T08:48:06.189Z,996.88
2019-03-10T08:49:06.218Z,996.79
2019-03-10T08:50:06.168Z,996.83
2019-03-10T08:51:06.155Z,996.80
2019-03-10T08:52:06.148Z,996.79
2019-03-10T08:53:06.132Z,996.79
2019-03-10T08:54:06.123Z,996.78
2019-03-10T08:55:06.119Z,996.75
2019-03-10T08:56:06.183Z,996.85
2019-03-10T08:57:06.096Z,996.76
2019-03-10T08:58:06.085Z,996.79
2019-03-10T08:59:06.079Z,996.74
2019-03-10T09:00:06.072Z,996.71
2019-03-10T09:01:06.066Z,996.65
2019-03-10T09:02:06.057Z,996.60
2019-03-10T09:03:06.047Z,996.54
2019-03-10T09:04:06.040Z,996.57
2019-03-10T09:05:06.026Z,996.54
2019-03-10T09:06:06.060Z,996.54
2019-03-10T09:07:06.008Z,996.44
2019-03-10T09:08:05.998Z,996.49
2019-03-10T09:09:05.996Z,996.43
2019-03-10T09:10:05.986Z,996.42
2019-03-10T09:11:05.972Z,996.45
2019-03-10T09:12:05.963Z,996.42
2019-03-10T09:13:05.964Z,996.41
2019-03-10T09:14:05.952Z,996.37
2019-03-10T09:15:05.947Z,996.42
2019-03-10T09:16:05.938Z,996.44
2019-03-10T09:17:05.925Z,996.49
2019-03-10T09:18:05.917Z,996.35
2019-03-10T09:19:05.905Z,996.30
2019-03-10T09:20:05.897Z,996.32
2019-03-10T09:21:05.896Z,996.30
2019-03-10T09:22:05.886Z,996.34
2019-03-10T09:23:05.881Z,996.25
2019-03-10T09:24:05.873Z,996.26
2019-03-10T09:25:05.865Z,996.23
2019-03-10T09:26:05.984Z,996.16
2019-03-10T09:27:05.849Z,996.15
2019-03-10T09:28:05.847Z,996.11
2019-03-10T09:29:05.830Z,996.03
2019-03-10T09:30:05.823Z,996.04
2019-03-10T09:31:05.812Z,996.17
2019-03-10T09:32:05.804Z,996.05
2019-03-10T09:33:05.803Z,996.03
2019-03-10T09:34:05.794Z,995.97
2019-03-10T09:35:05.792Z,995.90
2019-03-10T09:36:05.783Z,995.93
2019-03-10T09:37:05.767Z,995.83
2019-03-10T09:38:05.769Z,995.88
2019-03-10T09:39:05.765Z,995.87
2019-03-10T09:40:05.749Z,996.04
2019-03-10T09:41:05.746Z,995.83
2019-03-10T09:42:05.738Z,995.77
2019-03-10T09:43:05.729Z,995.83
2019-03-10T09:44:05.720Z,995.81
2019-03-10T09:45:05.719Z,995.77
2019-03-10T09:46:05.710Z,995.82
2019-03-10T09:47:05.700Z,995.72
2019-03-10T09:48:05.695Z,995.75
2019-03-10T09:49:05.682Z,995.72
2019-03-10T09:50:05.744Z,995.73
2019-03-10T09:51:05.670Z,995.78
2019-03-10T09:52:05.660Z,995.73
2019-03-10T09:53:05.663Z,995.70
2019-03-10T09:54:05.652Z,995.66
2019-03-10T09:55:05.647Z,995.66
2019-03-10T09:56:05.641Z,995.62
2019-03-10T09:57:05.632Z,995.66
2019-03-10T09:58:05.622Z,995.65
2019-03-10T09:59:05.619Z,995.65
2019-03-10T10:00:05.611Z,995.57
2019-03-10T10:01:05.599Z,995.60
2019-03-10T10:02:05.590Z,995.60
2019-03-10T10:03:05.582Z,995.61
2019-03-10T10:04:05.574Z,995.60
2019-03-10T10:05:05.572Z,995.58
2019-03-10T10:06:05.564Z,995.49
2019-03-10T10:07:05.558Z,995.53
2019-03-10T10:08:05.551Z,995.51
2019-03-10T10:09:05.538Z,995.45
2019-03-10T10:10:05.531Z,995.49
2019-03-10T10:11:05.527Z,995.53
2019-03-10T10:12:13.441Z,995.41
2019-03-10T10:13:05.516Z,995.60
2019-03-10T10:14:05.506Z,995.52
2019-03-10T10:15:05.496Z,995.47
2019-03-10T10:16:05.489Z,995.35
2019-03-10T10:17:05.484Z,995.49
2019-03-10T10:18:05.480Z,995.42
2019-03-10T10:19:05.468Z,995.41
2019-03-10T10:20:05.460Z,995.41
2019-03-10T10:21:05.452Z,995.36
2019-03-10T10:22:05.439Z,995.41
2019-03-10T10:23:05.439Z,995.27
2019-03-10T10:24:05.433Z,995.51
2019-03-10T10:25:05.427Z,995.66
2019-03-10T10:26:05.418Z,995.52
2019-03-10T10:27:05.408Z,995.43
2019-03-10T10:28:05.402Z,995.45
2019-03-10T10:29:05.452Z,995.37
2019-03-10T10:30:05.384Z,995.40
2019-03-10T10:31:05.383Z,995.50
2019-03-10T10:32:05.375Z,995.45
2019-03-10T10:33:05.370Z,995.46
2019-03-10T10:34:05.361Z,995.44
2019-03-10T10:35:05.356Z,995.48
2019-03-10T10:36:05.353Z,995.50
2019-03-10T10:37:05.355Z,995.39
2019-03-10T10:38:05.349Z,995.38
2019-03-10T10:39:05.348Z,995.42
2019-03-10T10:40:05.346Z,995.33
2019-03-10T10:41:05.338Z,995.40
2019-03-10T10:42:05.337Z,995.38
2019-03-10T10:43:05.333Z,995.46
2019-03-10T10:44:05.333Z,995.45
2019-03-10T10:45:05.340Z,995.45
2019-03-10T10:46:05.338Z,995.42
2019-03-10T10:47:05.333Z,995.15
2019-03-10T10:48:05.338Z,995.45
2019-03-10T10:49:05.356Z,995.39
2019-03-10T10:50:05.356Z,995.32
2019-03-10T10:51:05.347Z,995.39
2019-03-10T10:52:05.360Z,995.17
2019-03-10T10:53:05.366Z,995.27
2019-03-10T10:54:05.349Z,995.46
2019-03-10T10:55:05.353Z,995.39
2019-03-10T10:56:05.378Z,995.33
2019-03-10T10:57:05.365Z,995.46
2019-03-10T10:58:05.676Z,995.25
2019-03-10T10:59:05.365Z,995.53
2019-03-10T11:00:05.369Z,995.29
2019-03-10T11:01:05.367Z,995.39
2019-03-10T11:02:05.369Z,995.39
2019-03-10T11:03:05.377Z,995.37
2019-03-10T11:04:05.381Z,995.47
2019-03-10T11:05:05.378Z,995.32
2019-03-10T11:06:05.381Z,995.24
2019-03-10T11:07:05.387Z,995.55
2019-03-10T11:08:05.389Z,995.15
2019-03-10T11:09:05.396Z,995.25
2019-03-10T11:10:05.399Z,995.24
2019-03-10T11:11:05.401Z,995.24
2019-03-10T11:12:05.402Z,995.19
2019-03-10T11:13:05.396Z,995.31
2019-03-10T11:14:05.397Z,995.39
2019-03-10T11:15:05.399Z,995.21
2019-03-10T11:16:05.395Z,995.31
2019-03-10T11:17:05.398Z,995.27
2019-03-10T11:18:09.346Z,995.24
2019-03-10T11:19:05.393Z,995.28
2019-03-10T11:20:05.391Z,995.31
2019-03-10T11:21:05.401Z,995.08
2019-03-10T11:22:05.392Z,995.28
2019-03-10T11:23:05.394Z,995.24
2019-03-10T11:24:05.394Z,995.26
2019-03-10T11:25:05.386Z,995.39
2019-03-10T11:26:05.384Z,995.33
2019-03-10T11:27:05.376Z,995.56
2019-03-10T11:28:05.375Z,995.38
2019-03-10T11:29:05.378Z,995.43
2019-03-10T11:30:05.374Z,995.30
2019-03-10T11:31:05.378Z,995.20
2019-03-10T11:32:05.374Z,995.03
2019-03-10T11:33:05.367Z,995.16
2019-03-10T11:34:05.366Z,995.16
2019-03-10T11:35:05.368Z,995.20
2019-03-10T11:36:05.366Z,995.12
2019-03-10T11:37:05.380Z,995.17
2019-03-10T11:38:05.362Z,995.03
2019-03-10T11:39:05.358Z,995.27
2019-03-10T11:40:05.375Z,995.09
2019-03-10T11:41:05.358Z,995.25
2019-03-10T11:42:05.356Z,995.27
2019-03-10T11:43:05.360Z,995.13
2019-03-10T11:44:05.356Z,995.11
2019-03-10T11:45:05.348Z,995.24
2019-03-10T11:46:05.349Z,995.03
2019-03-10T11:47:05.348Z,995.14
2019-03-10T11:48:05.345Z,995.13
2019-03-10T11:49:05.349Z,995.31
2019-03-10T11:50:05.346Z,995.19
2019-03-10T11:51:05.339Z,995.17
2019-03-10T11:52:05.339Z,995.14
2019-03-10T11:53:05.341Z,995.06
2019-03-10T11:54:05.340Z,994.98
2019-03-10T11:55:05.387Z,995.20
2019-03-10T11:56:05.333Z,995.20
2019-03-10T11:57:05.332Z,995.13
2019-03-10T11:58:05.324Z,995.10
2019-03-10T11:59:05.322Z,995.17
2019-03-10T12:00:05.321Z,994.97
2019-03-10T12:01:05.326Z,995.23
2019-03-10T12:02:15.512Z,995.06
2019-03-10T12:03:05.327Z,995.12
2019-03-10T12:04:05.320Z,995.11
2019-03-10T12:05:05.331Z,995.14
2019-03-10T12:06:05.311Z,995.13
2019-03-10T12:07:05.313Z,995.22
2019-03-10T12:08:05.312Z,995.12
2019-03-10T12:09:05.308Z,994.87
2019-03-10T12:10:05.304Z,995.26
2019-03-10T12:11:05.298Z,995.21
2019-03-10T12:12:05.297Z,995.20
2019-03-10T12:13:05.298Z,995.15
2019-03-10T12:14:05.295Z,995.02
2019-03-10T12:15:05.293Z,995.20
2019-03-10T12:16:05.290Z,995.45